Time;durP1;ratioP1;P1;durP2;ratioP2;P2;SDS_P1;SDS_P2;PMS_P1;PMS_P2;Temp;Humidity;BMP_temperature;BMP_pressure;BME280_temperature;BME280_humidity;BME280_pressure;Samples;Min_cycle;Max_cycle;Signal;HPM_P1;HPM_P2
2023/07/29 00:00:39;;;;;;;9.68;7.70;;;18.20;99.90;;;;;;5089118;28;20154;-50
2023/07/29 00:03:04;;;;;;;12.27;7.85;;;18.20;99.90;;;;;;5070256;28;20516;-52
2023/07/29 00:05:30;;;;;;;9.80;7.88;;;18.20;99.90;;;;;;5088557;28;20107;-48
2023/07/29 00:07:56;;;;;;;11.75;8.20;;;18.10;99.90;;;;;;5088557;28;20028;-51
2023/07/29 00:10:22;;;;;;;12.00;7.65;;;18.10;99.90;;;;;;5088906;28;20024;-49
2023/07/29 00:12:48;;;;;;;10.43;7.15;;;18.10;99.90;;;;;;5088382;28;20268;-50
2023/07/29 00:15:13;;;;;;;7.85;6.65;;;18.10;99.90;;;;;;5088220;28;20020;-50
2023/07/29 00:17:39;;;;;;;8.25;6.85;;;18.10;99.90;;;;;;5088668;28;20024;-52
2023/07/29 00:20:06;;;;;;;8.43;6.97;;;18.10;99.90;;;;;;5088671;28;20107;-49
2023/07/29 00:22:31;;;;;;;7.70;6.90;;;18.10;99.90;;;;;;5088589;28;20020;-51
2023/07/29 00:24:57;;;;;;;8.55;6.88;;;18.20;99.90;;;;;;5088146;28;20034;-49
2023/07/29 00:27:23;;;;;;;8.95;7.18;;;18.20;99.90;;;;;;5088708;28;20424;-52
2023/07/29 00:29:49;;;;;;;8.48;6.13;;;18.30;99.90;;;;;;5088304;28;20031;-52
2023/07/29 00:32:15;;;;;;;7.40;6.70;;;18.20;99.90;;;;;;5088433;28;20024;-48
2023/07/29 00:34:40;;;;;;;6.85;6.10;;;18.20;99.90;;;;;;5087806;28;20028;-51
2023/07/29 00:37:06;;;;;;;8.32;6.20;;;18.30;99.90;;;;;;5070297;28;20053;-48
2023/07/29 00:39:34;;;;;;;8.38;6.72;;;18.20;99.90;;;;;;5088442;28;20027;-49
2023/07/29 00:42:00;;;;;;;7.05;6.32;;;18.30;99.90;;;;;;5091994;28;20088;-47
2023/07/29 00:44:25;;;;;;;8.60;6.30;;;18.30;99.90;;;;;;5091585;28;20044;-48
2023/07/29 00:46:55;;;;;;;10.00;6.60;;;18.30;99.90;;;;;;5073854;28;20457;-50
2023/07/29 00:49:21;;;;;;;7.50;6.40;;;18.30;99.90;;;;;;5092152;28;20434;-50
2023/07/29 00:51:47;;;;;;;9.82;6.55;;;18.30;99.90;;;;;;5091657;28;20115;-50
2023/07/29 00:54:13;;;;;;;6.80;6.10;;;18.40;99.90;;;;;;5091362;28;20105;-48
2023/07/29 00:56:40;;;;;;;10.63;6.28;;;18.30;99.90;;;;;;5073643;28;20070;-50
2023/07/29 00:59:05;;;;;;;9.05;5.72;;;18.30;99.90;;;;;;5091459;28;20023;-49
2023/07/29 01:01:32;;;;;;;5.45;4.80;;;18.40;99.90;;;;;;5091704;28;20020;-52
2023/07/29 01:03:58;;;;;;;8.90;5.25;;;18.40;99.90;;;;;;5073046;28;20031;-52
2023/07/29 01:07:00;;;;;;;7.35;5.60;;;18.40;99.90;;;;;;5092023;28;20016;-52
2023/07/29 01:09:32;;;;;;;8.38;5.00;;;18.40;99.90;;;;;;5091468;28;20219;-50
2023/07/29 01:12:08;;;;;;;7.70;4.78;;;18.40;99.90;;;;;;5091768;28;20028;-52
2023/07/29 01:14:45;;;;;;;5.82;4.60;;;18.40;99.90;;;;;;5073106;28;20073;-51
2023/07/29 01:17:20;;;;;;;4.85;4.43;;;18.40;99.90;;;;;;5091718;28;20023;-51
2023/07/29 01:20:05;;;;;;;5.53;4.93;;;18.40;99.90;;;;;;5091469;28;20016;-52
2023/07/29 01:22:35;;;;;;;4.93;4.43;;;18.40;99.90;;;;;;5091495;28;20351;-53
2023/07/29 01:25:01;;;;;;;7.20;4.68;;;18.40;99.90;;;;;;5090837;28;20161;-53
2023/07/29 01:27:27;;;;;;;5.90;4.50;;;18.40;99.90;;;;;;5091373;28;20558;-51
2023/07/29 01:29:54;;;;;;;7.13;4.70;;;18.40;99.90;;;;;;5090498;28;20130;-52
2023/07/29 01:32:32;;;;;;;8.00;4.20;;;18.40;99.90;;;;;;5090354;28;20035;-51
2023/07/29 01:35:26;;;;;;;6.85;4.32;;;18.40;99.90;;;;;;5090691;28;20020;-53
2023/07/29 01:38:12;;;;;;;6.28;4.47;;;18.40;99.90;;;;;;5091104;28;20027;-53
2023/07/29 01:40:39;;;;;;;5.70;4.05;;;18.40;99.90;;;;;;5089125;28;20330;-52
2023/07/29 01:43:04;;;;;;;4.55;4.10;;;18.40;99.90;;;;;;5090337;28;20404;-53
2023/07/29 01:45:31;;;;;;;5.70;4.43;;;18.30;99.90;;;;;;5090698;28;20103;-52
2023/07/29 01:47:57;;;;;;;5.57;4.15;;;18.30;99.90;;;;;;5091043;28;20059;-53
2023/07/29 01:50:22;;;;;;;6.22;4.35;;;18.30;99.90;;;;;;5090608;28;20067;-48
2023/07/29 01:52:48;;;;;;;4.95;4.45;;;18.30;99.90;;;;;;5089755;28;20122;-51
2023/07/29 01:55:13;;;;;;;5.28;4.18;;;18.30;99.90;;;;;;5090338;28;20430;-51
2023/07/29 01:57:39;;;;;;;5.93;3.95;;;18.30;99.90;;;;;;5090624;28;20366;-53
2023/07/29 02:00:05;;;;;;;7.57;3.55;;;18.20;99.90;;;;;;5090626;28;20024;-52
2023/07/29 02:02:31;;;;;;;4.00;3.60;;;18.30;99.90;;;;;;5090259;28;20020;-52
2023/07/29 02:04:56;;;;;;;4.57;3.83;;;18.30;99.90;;;;;;5090096;28;20028;-53
2023/07/29 02:07:22;;;;;;;4.47;3.45;;;18.20;99.90;;;;;;5072263;28;20036;-52
2023/07/29 02:09:47;;;;;;;4.07;3.40;;;18.20;99.90;;;;;;5090341;28;20024;-52
2023/07/29 02:12:13;;;;;;;3.80;3.47;;;18.20;99.90;;;;;;5090058;28;20107;-53
2023/07/29 02:14:38;;;;;;;4.32;3.92;;;18.20;99.90;;;;;;5090042;28;20086;-52
2023/07/29 02:17:04;;;;;;;3.67;3.33;;;18.20;99.90;;;;;;5090186;28;20020;-53
2023/07/29 02:19:29;;;;;;;3.63;3.05;;;18.20;99.90;;;;;;5090166;28;20089;-52
2023/07/29 02:21:55;;;;;;;4.40;4.00;;;18.20;99.90;;;;;;5090136;28;20032;-52
2023/07/29 02:24:20;;;;;;;6.65;3.88;;;18.10;99.90;;;;;;5089966;28;20590;-52
2023/07/29 02:26:46;;;;;;;4.70;3.55;;;18.20;99.90;;;;;;5090186;28;20110;-51
2023/07/29 02:29:11;;;;;;;4.00;3.45;;;18.20;99.90;;;;;;5071773;28;20024;-53
2023/07/29 02:31:38;;;;;;;6.32;3.72;;;18.10;99.90;;;;;;5090111;28;20085;-52
2023/07/29 02:34:04;;;;;;;3.78;3.40;;;18.10;99.90;;;;;;5089468;28;20553;-52
2023/07/29 02:36:29;;;;;;;4.30;3.90;;;18.10;99.90;;;;;;5090064;28;20103;-53
2023/07/29 02:38:55;;;;;;;5.13;3.60;;;18.00;99.90;;;;;;5090243;28;20415;-53
2023/07/29 02:41:20;;;;;;;4.20;3.80;;;18.00;99.90;;;;;;5089824;28;20028;-52
2023/07/29 02:43:50;;;;;;;4.15;3.65;;;18.00;99.90;;;;;;5089263;28;20074;-53
2023/07/29 02:46:15;;;;;;;5.15;4.00;;;18.00;99.90;;;;;;5089735;28;20099;-52
2023/07/29 02:48:42;;;;;;;6.18;3.72;;;18.00;99.90;;;;;;5089756;28;20618;-51
2023/07/29 02:51:08;;;;;;;4.93;4.38;;;18.00;99.90;;;;;;5089405;28;20114;-50
2023/07/29 02:53:36;;;;;;;3.90;3.17;;;18.00;99.90;;;;;;5089069;28;20095;-51
2023/07/29 02:56:02;;;;;;;6.30;3.40;;;17.90;99.90;;;;;;5089274;28;20104;-49
2023/07/29 02:58:27;;;;;;;3.72;3.42;;;17.90;99.90;;;;;;5071082;28;20524;-51
2023/07/29 03:00:53;;;;;;;5.80;3.72;;;17.90;99.90;;;;;;5089307;28;20024;-50
2023/07/29 03:03:19;;;;;;;3.83;3.47;;;17.90;99.90;;;;;;5088911;28;20499;-49
2023/07/29 03:05:45;;;;;;;4.82;3.67;;;17.90;99.90;;;;;;5089449;28;20031;-51
2023/07/29 03:08:10;;;;;;;5.57;3.60;;;17.90;99.90;;;;;;5089415;28;20312;-48
2023/07/29 03:10:36;;;;;;;3.60;3.30;;;17.90;99.90;;;;;;5089224;28;20543;-47
2023/07/29 03:13:02;;;;;;;4.63;3.20;;;17.90;99.90;;;;;;5088989;28;20657;-47
2023/07/29 03:15:27;;;;;;;3.65;3.35;;;17.90;99.90;;;;;;5087948;28;20020;-51
2023/07/29 03:17:53;;;;;;;8.00;4.07;;;17.90;99.90;;;;;;5089281;28;20077;-47
2023/07/29 03:20:19;;;;;;;3.80;3.47;;;17.80;99.90;;;;;;5089159;28;20405;-48
2023/07/29 03:22:45;;;;;;;4.75;3.50;;;17.80;99.90;;;;;;5089288;28;20266;-48
2023/07/29 03:25:11;;;;;;;4.28;3.88;;;17.80;99.90;;;;;;5088594;28;20592;-50
2023/07/29 03:27:36;;;;;;;5.40;4.13;;;17.70;99.90;;;;;;5089099;28;20180;-48
2023/07/29 03:30:03;;;;;;;6.60;3.80;;;17.70;99.90;;;;;;5088919;28;20500;-48
2023/07/29 03:32:29;;;;;;;4.38;3.85;;;17.70;99.90;;;;;;5088776;28;20020;-48
2023/07/29 03:34:54;;;;;;;4.82;3.90;;;17.70;99.90;;;;;;5088833;28;20025;-48
2023/07/29 03:37:21;;;;;;;5.68;3.80;;;17.70;99.90;;;;;;5088732;28;20107;-47
2023/07/29 03:39:47;;;;;;;4.55;3.40;;;17.70;99.90;;;;;;5070514;28;20028;-47
2023/07/29 03:42:12;;;;;;;5.30;3.55;;;17.70;99.90;;;;;;5086031;28;20024;-50
2023/07/29 03:44:39;;;;;;;4.65;4.05;;;17.70;99.90;;;;;;5088140;28;20031;-52
2023/07/29 03:47:05;;;;;;;5.03;4.28;;;17.70;99.90;;;;;;5088498;28;20050;-53
2023/07/29 03:49:31;;;;;;;4.43;4.03;;;17.70;99.90;;;;;;5088364;28;20024;-52
2023/07/29 03:51:56;;;;;;;4.65;3.92;;;17.60;99.90;;;;;;5088301;28;20067;-52
2023/07/29 03:54:22;;;;;;;4.25;3.80;;;17.70;99.90;;;;;;5085336;28;20021;-52
2023/07/29 03:56:47;;;;;;;3.67;3.38;;;17.70;99.90;;;;;;5070954;28;20392;-53
2023/07/29 03:59:13;;;;;;;4.38;3.08;;;17.70;99.90;;;;;;5088313;28;20441;-53
2023/07/29 04:01:39;;;;;;;3.45;3.15;;;17.80;99.90;;;;;;5070610;28;20281;-52
2023/07/29 04:04:05;;;;;;;6.90;3.53;;;17.80;99.90;;;;;;5088576;28;20557;-52
2023/07/29 04:06:30;;;;;;;6.75;3.28;;;17.80;99.90;;;;;;5089270;28;20039;-50
2023/07/29 04:08:56;;;;;;;3.45;3.15;;;17.90;99.90;;;;;;5089180;28;20024;-48
2023/07/29 04:11:23;;;;;;;3.13;2.83;;;17.90;99.90;;;;;;5089048;28;20024;-48
2023/07/29 04:13:48;;;;;;;5.82;3.15;;;17.90;99.90;;;;;;5088499;28;20020;-51
2023/07/29 04:16:14;;;;;;;6.93;3.50;;;18.00;99.90;;;;;;5091047;28;20389;-53
2023/07/29 04:18:39;;;;;;;3.28;2.97;;;18.00;99.90;;;;;;5074377;28;20023;-52
2023/07/29 04:21:05;;;;;;;4.65;3.20;;;18.00;99.90;;;;;;5092360;28;20028;-48
2023/07/29 04:23:30;;;;;;;4.28;3.00;;;18.10;99.90;;;;;;5092168;28;20035;-49
2023/07/29 04:25:56;;;;;;;3.90;3.13;;;18.10;99.90;;;;;;5092492;28;20028;-51
2023/07/29 04:28:21;;;;;;;3.35;2.88;;;18.20;99.90;;;;;;5092370;28;20427;-54
2023/07/29 04:30:47;;;;;;;4.05;3.10;;;18.20;99.90;;;;;;5092195;28;20032;-53
2023/07/29 04:33:12;;;;;;;4.53;3.33;;;18.20;99.90;;;;;;5092036;28;20107;-52
2023/07/29 04:35:38;;;;;;;3.50;2.95;;;18.30;99.90;;;;;;5091794;28;20358;-53
2023/07/29 04:38:03;;;;;;;5.30;3.28;;;18.30;99.90;;;;;;5092338;28;20031;-52
2023/07/29 04:40:29;;;;;;;4.13;3.17;;;18.30;99.90;;;;;;5092311;28;20354;-50
2023/07/29 04:42:54;;;;;;;3.17;2.70;;;18.40;99.90;;;;;;5091978;28;20152;-51
2023/07/29 04:45:20;;;;;;;3.50;2.72;;;18.40;99.90;;;;;;5091706;28;20024;-51
2023/07/29 04:47:45;;;;;;;3.92;2.90;;;18.40;99.90;;;;;;5092116;28;20030;-52
2023/07/29 04:50:11;;;;;;;3.08;2.78;;;18.50;99.90;;;;;;5091600;28;20028;-51
2023/07/29 04:52:36;;;;;;;3.28;2.80;;;18.50;99.90;;;;;;5091905;28;20024;-52
2023/07/29 04:55:02;;;;;;;3.30;2.50;;;18.60;99.90;;;;;;5091519;28;20303;-54
2023/07/29 04:57:29;;;;;;;2.70;2.50;;;18.60;99.90;;;;;;5091837;28;20016;-55
2023/07/29 04:59:54;;;;;;;3.00;2.70;;;18.60;99.90;;;;;;5091593;28;20020;-53
2023/07/29 05:02:20;;;;;;;3.65;2.50;;;18.70;99.90;;;;;;5091573;28;20027;-55
2023/07/29 05:04:46;;;;;;;3.95;3.03;;;18.80;99.90;;;;;;5091084;28;20020;-55
2023/07/29 05:07:12;;;;;;;4.10;2.58;;;18.70;99.90;;;;;;5073416;28;20016;-52
2023/07/29 05:09:37;;;;;;;5.38;2.60;;;18.80;99.90;;;;;;5091792;28;20500;-51
2023/07/29 05:12:03;;;;;;;2.80;2.60;;;18.80;99.90;;;;;;5091711;28;20012;-52
2023/07/29 05:14:29;;;;;;;2.25;2.05;;;18.80;99.90;;;;;;5091485;28;20469;-52
2023/07/29 05:16:54;;;;;;;3.22;2.63;;;18.80;99.90;;;;;;5091354;28;20093;-49
2023/07/29 05:19:19;;;;;;;3.10;2.55;;;18.80;99.90;;;;;;5091163;28;20385;-51
2023/07/29 05:21:45;;;;;;;3.95;2.63;;;18.80;99.90;;;;;;5091277;28;20020;-51
2023/07/29 05:24:11;;;;;;;3.45;2.78;;;18.80;99.90;;;;;;5090991;28;20031;-51
2023/07/29 05:26:36;;;;;;;3.22;2.33;;;18.80;99.90;;;;;;5090257;28;20032;-52
2023/07/29 05:29:02;;;;;;;2.53;2.33;;;18.80;99.90;;;;;;5090848;28;20229;-53
2023/07/29 05:31:27;;;;;;;4.68;2.47;;;18.90;99.90;;;;;;5091232;28;20472;-52
2023/07/29 05:33:53;;;;;;;2.92;2.70;;;18.90;99.90;;;;;;5090177;28;20035;-51
2023/07/29 05:36:18;;;;;;;2.72;2.50;;;19.00;99.90;;;;;;5090872;28;20389;-54
2023/07/29 05:38:44;;;;;;;4.15;2.55;;;19.10;99.90;;;;;;5091060;28;20467;-53
2023/07/29 05:41:09;;;;;;;2.90;2.70;;;19.10;99.90;;;;;;5091354;28;20034;-53
2023/07/29 05:43:35;;;;;;;2.15;1.95;;;19.20;99.90;;;;;;5090494;28;20030;-52
2023/07/29 05:46:00;;;;;;;3.00;2.80;;;19.30;99.90;;;;;;5090739;28;20024;-52
2023/07/29 05:48:26;;;;;;;3.92;2.40;;;19.30;99.90;;;;;;5090800;28;20469;-53
2023/07/29 05:50:51;;;;;;;5.07;2.63;;;19.40;99.90;;;;;;5090633;28;20452;-53
2023/07/29 05:53:17;;;;;;;2.67;2.40;;;19.50;99.90;;;;;;5090403;28;20389;-51
2023/07/29 05:55:42;;;;;;;3.28;2.75;;;19.50;99.90;;;;;;5072351;28;20072;-52
2023/07/29 05:58:09;;;;;;;4.88;2.58;;;19.60;99.90;;;;;;5090509;28;20028;-53
2023/07/29 06:00:34;;;;;;;2.65;2.35;;;19.60;99.90;;;;;;5090547;28;20012;-53
2023/07/29 06:03:00;;;;;;;3.35;2.28;;;19.70;99.90;;;;;;5090279;28;20028;-52
2023/07/29 06:05:25;;;;;;;2.67;2.40;;;19.80;99.90;;;;;;5090378;28;20031;-53
2023/07/29 06:07:51;;;;;;;5.15;2.05;;;19.90;99.90;;;;;;5090471;28;20497;-53
2023/07/29 06:10:19;;;;;;;2.67;2.38;;;20.00;99.90;;;;;;5072355;28;20031;-53
2023/07/29 06:12:46;;;;;;;2.28;2.08;;;20.10;99.90;;;;;;5090223;28;20028;-53
2023/07/29 06:15:12;;;;;;;2.45;2.22;;;20.10;99.90;;;;;;5090002;28;20059;-53
2023/07/29 06:17:38;;;;;;;2.83;2.08;;;20.10;99.90;;;;;;5090286;28;20047;-53
2023/07/29 06:20:04;;;;;;;2.55;2.15;;;20.10;99.90;;;;;;5090175;28;20024;-53
2023/07/29 06:22:29;;;;;;;2.90;2.08;;;20.20;99.90;;;;;;5089931;28;20488;-53
2023/07/29 06:24:55;;;;;;;2.47;2.20;;;20.10;99.90;;;;;;5090013;28;20080;-53
2023/07/29 06:27:20;;;;;;;2.30;2.10;;;20.10;99.90;;;;;;5090423;28;20031;-52
2023/07/29 06:29:46;;;;;;;2.47;2.28;;;20.00;99.90;;;;;;5071924;28;20454;-49
2023/07/29 06:32:11;;;;;;;3.00;2.28;;;20.00;99.90;;;;;;5071500;28;20411;-51
2023/07/29 06:34:37;;;;;;;2.75;2.15;;;19.90;99.90;;;;;;5089444;28;20442;-50
2023/07/29 06:37:02;;;;;;;2.55;2.35;;;19.80;99.90;;;;;;5090032;28;20028;-53
2023/07/29 06:39:28;;;;;;;3.22;2.42;;;19.70;99.90;;;;;;5089934;28;20217;-53
2023/07/29 06:41:53;;;;;;;3.67;2.47;;;19.60;99.90;;;;;;5089875;28;20089;-53
2023/07/29 06:44:19;;;;;;;2.83;2.50;;;19.50;99.90;;;;;;5089227;28;20024;-53
2023/07/29 06:46:44;;;;;;;4.57;2.50;;;19.40;99.90;;;;;;5089655;28;20384;-53
2023/07/29 06:49:10;;;;;;;2.95;2.65;;;19.30;99.90;;;;;;5088248;28;20032;-54
2023/07/29 06:51:36;;;;;;;4.18;3.00;;;19.30;99.90;;;;;;5089610;28;20170;-53
2023/07/29 06:54:02;;;;;;;3.85;2.72;;;19.20;99.90;;;;;;5088419;28;20035;-52
2023/07/29 06:56:28;;;;;;;4.47;3.33;;;19.10;99.90;;;;;;5089063;28;20068;-54
2023/07/29 06:58:53;;;;;;;3.97;3.15;;;19.00;99.90;;;;;;5089142;28;20097;-54
2023/07/29 07:01:19;;;;;;;5.50;3.15;;;19.00;99.90;;;;;;5089146;28;20024;-53
2023/07/29 07:03:44;;;;;;;4.00;3.28;;;19.00;99.90;;;;;;5089278;28;20024;-54
2023/07/29 07:06:10;;;;;;;4.57;3.45;;;18.90;99.90;;;;;;5089412;28;20030;-55
2023/07/29 07:08:35;;;;;;;5.55;3.70;;;18.90;99.90;;;;;;5089401;28;20024;-54
2023/07/29 07:11:01;;;;;;;4.35;3.55;;;18.80;99.90;;;;;;5071238;28;20031;-55
2023/07/29 07:13:26;;;;;;;10.90;4.50;;;18.80;99.90;;;;;;5089414;28;20038;-55
2023/07/29 07:15:56;;;;;;;5.15;3.80;;;18.80;99.90;;;;;;5089412;28;20016;-55
2023/07/29 07:18:22;;;;;;;5.20;3.80;;;18.60;99.90;;;;;;5070870;28;20028;-55
2023/07/29 07:20:51;;;;;;;9.60;4.60;;;18.50;99.90;;;;;;5088839;28;20095;-56
2023/07/29 07:23:17;;;;;;;5.63;4.93;;;18.40;99.90;;;;;;5088766;28;20020;-56
2023/07/29 07:25:43;;;;;;;5.82;4.75;;;18.30;99.90;;;;;;5089372;28;20393;-56
2023/07/29 07:28:09;;;;;;;5.38;4.50;;;18.10;99.90;;;;;;5089301;28;20078;-55
2023/07/29 07:30:35;;;;;;;6.55;4.95;;;18.00;99.90;;;;;;5089654;28;20576;-56
2023/07/29 07:33:01;;;;;;;7.70;6.20;;;17.90;99.90;;;;;;5088898;28;20111;-56
2023/07/29 07:35:26;;;;;;;9.80;6.63;;;17.90;99.90;;;;;;5071094;28;20028;-56
2023/07/29 07:37:52;;;;;;;9.50;6.40;;;17.90;99.90;;;;;;5089225;28;20361;-56
2023/07/29 07:40:17;;;;;;;11.15;6.43;;;17.80;99.90;;;;;;5071044;28;20016;-56
2023/07/29 07:42:43;;;;;;;7.70;6.45;;;17.80;99.90;;;;;;5089385;28;20016;-56
2023/07/29 07:45:09;;;;;;;7.65;6.57;;;17.70;99.90;;;;;;5088906;28;20028;-56
2023/07/29 07:47:34;;;;;;;9.00;7.45;;;17.70;99.90;;;;;;5089094;28;20406;-56
2023/07/29 07:50:00;;;;;;;6.95;6.25;;;17.80;99.90;;;;;;5089273;28;20028;-56
2023/07/29 07:52:25;;;;;;;7.78;6.60;;;17.90;99.90;;;;;;5092627;28;20108;-56
2023/07/29 07:54:54;;;;;;;8.88;7.15;;;18.00;99.90;;;;;;5092186;28;20035;-55
2023/07/29 07:57:23;;;;;;;7.35;6.20;;;18.10;99.90;;;;;;5092142;28;20036;-56
2023/07/29 07:59:48;;;;;;;8.55;6.75;;;18.10;99.90;;;;;;5092238;28;20128;-56
2023/07/29 08:02:14;;;;;;;6.40;5.80;;;18.20;99.90;;;;;;5092492;28;20532;-56
2023/07/29 08:04:40;;;;;;;6.38;5.68;;;18.30;99.90;;;;;;5092918;28;20020;-56
2023/07/29 08:07:05;;;;;;;6.90;5.30;;;18.50;99.90;;;;;;5093106;28;20020;-56
2023/07/29 08:09:31;;;;;;;6.43;5.05;;;18.50;99.90;;;;;;5092945;28;20035;-56
2023/07/29 08:11:56;;;;;;;5.55;5.05;;;18.50;99.90;;;;;;5092833;28;20027;-56
2023/07/29 08:14:22;;;;;;;6.18;5.32;;;18.70;99.90;;;;;;5092019;28;20497;-56
2023/07/29 08:16:47;;;;;;;5.03;4.57;;;18.80;99.90;;;;;;5092570;28;20540;-56
2023/07/29 08:19:13;;;;;;;4.43;3.95;;;18.90;99.90;;;;;;5092338;28;20464;-56
2023/07/29 08:21:38;;;;;;;5.70;3.90;;;19.10;99.90;;;;;;5092328;28;20020;-56
2023/07/29 08:24:04;;;;;;;5.65;4.20;;;19.00;99.90;;;;;;5091940;28;20024;-56
2023/07/29 08:26:30;;;;;;;5.50;3.72;;;19.10;99.90;;;;;;5074383;28;20040;-56
2023/07/29 08:28:55;;;;;;;5.15;3.28;;;18.90;99.90;;;;;;5092349;28;20028;-55
2023/07/29 08:31:21;;;;;;;4.97;3.83;;;19.00;99.90;;;;;;5092398;28;20027;-56
2023/07/29 08:33:46;;;;;;;3.65;3.20;;;19.00;99.90;;;;;;5091989;28;20030;-56
2023/07/29 08:36:12;;;;;;;3.95;3.55;;;19.00;99.90;;;;;;5074155;28;20039;-56
2023/07/29 08:38:37;;;;;;;3.63;3.33;;;19.20;99.90;;;;;;5092376;28;20103;-56
2023/07/29 08:41:45;;;;;;;3.75;3.42;;;19.50;99.90;;;;;;5092529;28;20021;-56
2023/07/29 08:44:26;;;;;;;3.42;3.13;;;19.80;99.90;;;;;;4989314;28;20050;-56
2023/07/29 08:46:53;;;;;;;2.50;2.30;;;19.80;99.90;;;;;;5086464;28;20024;-56
2023/07/29 08:49:19;;;;;;;3.10;2.80;;;19.70;99.90;;;;;;5091981;28;20009;-56
2023/07/29 08:51:49;;;;;;;3.28;2.63;;;19.90;99.90;;;;;;5092024;28;20024;-56
2023/07/29 08:54:15;;;;;;;2.60;2.33;;;19.90;99.90;;;;;;5091209;28;20043;-56
2023/07/29 08:56:41;;;;;;;3.53;2.50;;;19.80;99.90;;;;;;5073938;28;20465;-56
2023/07/29 08:59:08;;;;;;;2.97;2.42;;;19.80;99.90;;;;;;5091560;28;20028;-56
2023/07/29 09:01:33;;;;;;;3.30;2.30;;;19.80;99.90;;;;;;5073410;28;20019;-56
2023/07/29 09:03:59;;;;;;;2.55;2.35;;;20.00;99.90;;;;;;5091376;28;20012;-56
2023/07/29 09:06:25;;;;;;;2.35;2.15;;;20.00;99.90;;;;;;5091670;28;20040;-56
2023/07/29 09:08:52;;;;;;;2.90;2.30;;;20.30;99.90;;;;;;5091533;28;20031;-56
2023/07/29 09:11:19;;;;;;;3.30;3.00;;;20.30;99.90;;;;;;5091463;28;20036;-56
2023/07/29 09:13:44;;;;;;;2.83;2.50;;;20.30;99.90;;;;;;5091367;28;20081;-55
2023/07/29 09:16:10;;;;;;;2.42;2.10;;;20.80;99.90;;;;;;5091284;28;20488;-56
2023/07/29 09:18:35;;;;;;;2.33;2.13;;;21.20;99.90;;;;;;5091374;28;20051;-55
2023/07/29 09:21:02;;;;;;;2.05;1.85;;;21.50;99.90;;;;;;5091115;28;20017;-56
2023/07/29 09:23:28;;;;;;;1.83;1.60;;;21.70;99.90;;;;;;5090779;28;20069;-55
2023/07/29 09:26:03;;;;;;;2.65;1.88;;;21.70;99.90;;;;;;5091279;28;20415;-55
2023/07/29 09:28:36;;;;;;;2.05;1.80;;;21.60;99.90;;;;;;5089852;28;20024;-55
2023/07/29 09:31:02;;;;;;;4.57;1.85;;;21.50;99.90;;;;;;5090861;28;20071;-55
2023/07/29 09:33:39;;;;;;;2.13;1.92;;;21.10;99.90;;;;;;5090590;28;20024;-55
2023/07/29 09:36:09;;;;;;;1.92;1.73;;;21.00;99.90;;;;;;5071951;28;20404;-55
2023/07/29 09:38:35;;;;;;;2.47;2.28;;;20.90;99.90;;;;;;5091117;28;20544;-55
2023/07/29 09:41:01;;;;;;;2.97;1.95;;;21.00;99.90;;;;;;5091199;28;20092;-55
2023/07/29 09:43:31;;;;;;;2.33;2.10;;;20.70;99.90;;;;;;5090741;28;20048;-55
2023/07/29 09:46:05;;;;;;;2.78;2.05;;;20.60;99.90;;;;;;5090524;28;20036;-55
2023/07/29 09:48:38;;;;;;;2.25;2.05;;;20.50;99.90;;;;;;5091046;28;20031;-55
2023/07/29 09:51:14;;;;;;;2.55;1.95;;;20.40;99.90;;;;;;5090312;28;20031;-55
2023/07/29 09:53:44;;;;;;;2.28;1.80;;;20.30;99.90;;;;;;5090110;28;20016;-55
2023/07/29 09:56:10;;;;;;;3.53;2.03;;;20.50;99.90;;;;;;5072263;28;20111;-55
2023/07/29 09:58:38;;;;;;;2.88;1.85;;;20.80;99.90;;;;;;5090158;28;20107;-54
2023/07/29 10:01:06;;;;;;;4.28;1.98;;;21.00;99.90;;;;;;5090104;28;20346;-55
2023/07/29 10:03:36;;;;;;;2.80;1.80;;;21.20;99.90;;;;;;5089515;28;20020;-55
2023/07/29 10:06:03;;;;;;;2.88;1.58;;;21.30;99.90;;;;;;5090346;28;20078;-54
2023/07/29 10:08:38;;;;;;;1.95;1.42;;;21.50;99.90;;;;;;5097496;28;20020;-55
2023/07/29 10:11:06;;;;;;;2.35;1.63;;;21.50;99.90;;;;;;5093875;28;20070;-55
2023/07/29 10:13:33;;;;;;;2.25;1.80;;;21.50;99.90;;;;;;5088519;28;20040;-55
2023/07/29 10:16:02;;;;;;;1.90;1.70;;;21.40;99.90;;;;;;5089893;28;20020;-54
2023/07/29 10:18:28;;;;;;;2.30;2.08;;;21.40;99.90;;;;;;5089428;28;20103;-54
2023/07/29 10:20:56;;;;;;;4.88;2.30;;;21.40;99.90;;;;;;5069365;28;20134;-54
2023/07/29 10:23:24;;;;;;;4.15;3.03;;;21.20;99.90;;;;;;5088666;28;20511;-54
2023/07/29 10:26:10;;;;;;;5.85;2.92;;;21.10;99.90;;;;;;5086858;28;20062;-54
2023/07/29 10:28:39;;;;;;;6.03;3.00;;;20.80;99.90;;;;;;5089595;28;20038;-54
2023/07/29 10:31:05;;;;;;;3.83;2.50;;;20.70;99.90;;;;;;5090273;28;20024;-54
2023/07/29 10:33:33;;;;;;;3.67;2.40;;;20.60;99.90;;;;;;5089386;28;20028;-54
2023/07/29 10:35:58;;;;;;;5.15;3.13;;;20.60;99.90;;;;;;5089906;28;20404;-54
2023/07/29 10:38:25;;;;;;;3.45;2.90;;;20.70;99.90;;;;;;5089566;28;20016;-54
2023/07/29 10:40:56;;;;;;;3.83;2.72;;;21.10;99.90;;;;;;5071350;28;20118;-54
2023/07/29 10:43:33;;;;;;;4.45;2.10;;;22.20;99.90;;;;;;5088960;28;20031;-55
2023/07/29 10:46:22;;;;;;;2.95;1.92;;;23.00;99.90;;;;;;5089063;28;20031;-54
2023/07/29 10:48:50;;;;;;;1.80;1.70;;;24.10;99.90;;;;;;5089336;28;20489;-55
2023/07/29 10:51:48;;;;;;;3.08;1.80;;;24.30;99.90;;;;;;5089256;28;20079;-55
2023/07/29 10:54:14;;;;;;;2.60;1.60;;;24.90;99.90;;;;;;5033473;28;20443;-54
2023/07/29 10:56:42;;;;;;;1.70;1.40;;;24.80;99.90;;;;;;5089512;28;20024;-54
2023/07/29 10:59:11;;;;;;;1.92;1.73;;;24.90;99.90;;;;;;5088840;28;20104;-54
2023/07/29 11:01:39;;;;;;;2.22;2.03;;;24.90;99.90;;;;;;5087992;28;20653;-54
2023/07/29 11:04:30;;;;;;;1.70;1.52;;;24.70;99.90;;;;;;5070785;28;20066;-54
2023/07/29 11:07:23;;;;;;;2.88;1.50;;;25.50;99.90;;;;;;5077442;28;20040;-54
2023/07/29 11:09:49;;;;;;;2.78;1.65;;;25.70;99.90;;;;;;5071092;28;20020;-54
2023/07/29 11:12:38;;;;;;;2.20;1.90;;;25.60;99.90;;;;;;5070742;28;20024;-53
2023/07/29 11:15:09;;;;;;;2.60;1.98;;;25.60;99.90;;;;;;5088660;28;20409;-53
2023/07/29 11:17:35;;;;;;;2.20;2.00;;;25.30;99.90;;;;;;5089103;28;20477;-54
2023/07/29 11:20:03;;;;;;;5.30;2.33;;;25.00;99.90;;;;;;5089303;28;20392;-53
2023/07/29 11:22:28;;;;;;;2.40;2.17;;;24.50;99.90;;;;;;5089038;28;20020;-53
2023/07/29 11:24:54;;;;;;;4.70;1.67;;;24.60;99.90;;;;;;5087820;28;20508;-53
2023/07/29 11:27:20;;;;;;;2.55;1.60;;;25.10;99.90;;;;;;5089094;28;20020;-52
2023/07/29 11:29:47;;;;;;;1.70;1.60;;;25.30;99.90;;;;;;5088929;28;20023;-53
2023/07/29 11:32:12;;;;;;;2.17;1.83;;;25.80;99.90;;;;;;5088928;28;20031;-52
2023/07/29 11:34:39;;;;;;;3.22;1.80;;;25.50;99.90;;;;;;5088645;28;20365;-51
2023/07/29 11:37:06;;;;;;;1.88;1.77;;;25.20;99.90;;;;;;5089144;28;20013;-52
2023/07/29 11:39:32;;;;;;;2.08;1.98;;;24.90;99.90;;;;;;5089023;28;20024;-52
2023/07/29 11:41:58;;;;;;;2.33;1.98;;;25.70;99.90;;;;;;5088994;28;20289;-53
2023/07/29 11:44:25;;;;;;;1.70;1.60;;;27.30;99.90;;;;;;5088495;28;20029;-53
2023/07/29 11:46:50;;;;;;;5.32;2.13;;;28.60;99.90;;;;;;5088894;28;20024;-52
2023/07/29 11:49:16;;;;;;;1.98;1.75;;;28.50;99.90;;;;;;5088741;28;20489;-49
2023/07/29 11:51:42;;;;;;;3.28;1.65;;;28.30;99.90;;;;;;5088755;28;20024;-50
2023/07/29 11:54:08;;;;;;;2.20;2.00;;;28.30;99.90;;;;;;5088711;28;20103;-50
2023/07/29 11:56:35;;;;;;;2.20;2.00;;;28.60;99.90;;;;;;5088654;28;20024;-50
2023/07/29 11:59:02;;;;;;;2.72;2.00;;;29.10;99.90;;;;;;5084001;28;20020;-50
2023/07/29 12:01:28;;;;;;;3.95;2.38;;;28.10;99.90;;;;;;5070732;28;20016;-49
2023/07/29 12:03:55;;;;;;;3.53;3.15;;;27.60;99.90;;;;;;5088126;28;20023;-49
2023/07/29 12:06:22;;;;;;;4.75;3.20;;;27.10;99.90;;;;;;5088781;28;20362;-52
2023/07/29 12:08:47;;;;;;;5.50;3.83;;;26.30;99.90;;;;;;5088754;28;20024;-50
2023/07/29 12:11:14;;;;;;;11.55;5.32;;;25.50;99.90;;;;;;5088728;28;20039;-51
2023/07/29 12:13:41;;;;;;;13.63;7.03;;;24.70;99.90;;;;;;5088330;28;20020;-53
2023/07/29 12:16:07;;;;;;;8.65;7.72;;;23.70;99.90;;;;;;5088380;28;20089;-55
2023/07/29 12:18:33;;;;;;;12.48;8.45;;;22.70;99.90;;;;;;5088782;28;20028;-55
2023/07/29 12:20:59;;;;;;;10.23;9.20;;;21.90;99.90;;;;;;5070332;28;20103;-55
2023/07/29 12:23:25;;;;;;;10.98;9.88;;;21.50;99.90;;;;;;5087892;28;20232;-55
2023/07/29 12:25:57;;;;;;;15.05;12.85;;;21.00;99.90;;;;;;5088403;28;20024;-54
2023/07/29 12:28:23;;;;;;;17.75;14.63;;;21.40;99.90;;;;;;5088414;28;20032;-55
2023/07/29 12:30:52;;;;;;;16.80;12.80;;;22.00;99.90;;;;;;5088221;28;20032;-55
2023/07/29 12:33:41;;;;;;;13.98;12.43;;;21.90;99.90;;;;;;5069833;28;20487;-55
2023/07/29 12:36:07;;;;;;;16.58;13.45;;;22.10;99.90;;;;;;5088746;28;20036;-55
2023/07/29 12:38:33;;;;;;;13.20;11.80;;;22.40;99.90;;;;;;5073755;28;20024;-55
2023/07/29 12:40:59;;;;;;;11.75;10.55;;;22.40;99.90;;;;;;5073762;28;20028;-55
2023/07/29 12:43:25;;;;;;;13.32;11.10;;;22.20;99.90;;;;;;5091359;28;20043;-55
2023/07/29 12:45:51;;;;;;;12.32;10.75;;;21.70;99.90;;;;;;5073938;28;20146;-55